Time;durP1;ratioP1;P1;durP2;ratioP2;P2;SDS_P1;SDS_P2;PMS_P1;PMS_P2;Temp;Humidity;BMP_temperature;BMP_pressure;BME280_temperature;BME280_humidity;BME280_pressure;Samples;Min_cycle;Max_cycle;Signal;HPM_P1;HPM_P2
2023/07/01 00:01:23;;;;;;;9.02;1.85;;;17.40;99.90;;;;;;5103579;27;20042;-80
2023/07/01 00:03:49;;;;;;;8.98;2.28;;;17.40;99.90;;;;;;5059760;28;20067;-79
2023/07/01 00:06:15;;;;;;;8.85;1.40;;;17.40;99.90;;;;;;5097516;28;20078;-80
2023/07/01 00:08:41;;;;;;;6.05;2.30;;;17.40;99.90;;;;;;5099636;27;20043;-80
2023/07/01 00:11:07;;;;;;;8.90;2.05;;;17.40;99.90;;;;;;5091766;28;20134;-80
2023/07/01 00:13:34;;;;;;;11.82;2.08;;;17.40;99.90;;;;;;5108585;27;20046;-79
2023/07/01 00:15:59;;;;;;;6.43;1.33;;;17.30;99.90;;;;;;5097886;28;20561;-80
2023/07/01 00:18:26;;;;;;;4.32;1.60;;;17.30;99.90;;;;;;5102868;27;20096;-80
2023/07/01 00:20:53;;;;;;;9.85;1.85;;;17.40;99.90;;;;;;5105753;27;20053;-80
2023/07/01 00:23:19;;;;;;;3.20;1.33;;;17.30;99.90;;;;;;5094064;28;20061;-80
2023/07/01 00:25:45;;;;;;;8.50;2.05;;;17.30;99.90;;;;;;5102143;28;20048;-80
2023/07/01 00:28:11;;;;;;;7.70;2.08;;;17.30;99.90;;;;;;5107273;27;20107;-80
2023/07/01 00:30:36;;;;;;;5.97;1.65;;;17.30;99.90;;;;;;5087954;28;20105;-80
2023/07/01 00:33:03;;;;;;;6.30;1.77;;;17.30;99.90;;;;;;5093538;28;20040;-80
2023/07/01 00:35:29;;;;;;;5.22;1.90;;;17.30;99.90;;;;;;5083958;28;20040;-80
2023/07/01 00:37:54;;;;;;;6.75;1.83;;;17.30;99.90;;;;;;5102405;27;20066;-80
2023/07/01 00:40:20;;;;;;;7.38;1.65;;;17.20;99.90;;;;;;5103882;28;20071;-79
2023/07/01 00:42:46;;;;;;;8.27;2.65;;;17.20;99.90;;;;;;5111934;27;20063;-80
2023/07/01 00:45:11;;;;;;;6.60;1.88;;;17.30;99.90;;;;;;5108332;27;20031;-80
2023/07/01 00:47:41;;;;;;;8.55;2.65;;;17.30;99.90;;;;;;5097751;28;20040;-81
2023/07/01 00:50:13;;;;;;;5.22;1.63;;;17.20;99.90;;;;;;5089735;28;20507;-81
2023/07/01 00:52:41;;;;;;;7.10;2.00;;;17.30;99.90;;;;;;5105727;27;20047;-81
2023/07/01 00:55:08;;;;;;;5.78;1.50;;;17.20;99.90;;;;;;5095436;28;20421;-81
2023/07/01 00:57:34;;;;;;;6.78;1.83;;;17.30;99.90;;;;;;5112256;27;20051;-80
2023/07/01 01:00:10;;;;;;;6.78;2.53;;;17.30;99.90;;;;;;5093058;27;20096;-81
2023/07/01 01:02:58;;;;;;;8.15;2.22;;;17.30;99.90;;;;;;5102727;27;20031;-81
2023/07/01 01:05:39;;;;;;;5.63;1.90;;;17.30;99.90;;;;;;5097985;27;20050;-81
2023/07/01 01:08:31;;;;;;;9.10;1.63;;;17.30;99.90;;;;;;5115147;27;20035;-81
2023/07/01 01:10:59;;;;;;;11.18;1.80;;;17.30;99.90;;;;;;5111570;27;20058;-80
2023/07/01 01:13:27;;;;;;;6.47;1.50;;;17.30;99.90;;;;;;5096292;28;20702;-81
2023/07/01 01:15:55;;;;;;;13.02;1.77;;;17.30;99.90;;;;;;5104351;27;20348;-81
2023/07/01 01:18:23;;;;;;;12.75;3.05;;;17.30;99.90;;;;;;5113338;27;20032;-79
2023/07/01 01:20:50;;;;;;;6.63;1.67;;;17.30;99.90;;;;;;5099837;27;20577;-79
2023/07/01 01:23:28;;;;;;;6.60;2.00;;;17.30;99.90;;;;;;5112353;27;20031;-79
2023/07/01 01:26:29;;;;;;;4.80;1.88;;;17.30;99.90;;;;;;5101104;27;20165;-79
2023/07/01 01:28:55;;;;;;;6.07;1.58;;;17.30;99.90;;;;;;5102196;27;20502;-80
2023/07/01 01:31:21;;;;;;;4.00;1.73;;;17.20;99.90;;;;;;5097285;27;20059;-79
2023/07/01 01:33:48;;;;;;;4.57;1.52;;;17.30;99.90;;;;;;5107394;27;20651;-79
2023/07/01 01:36:20;;;;;;;5.90;2.13;;;17.20;99.90;;;;;;5104560;27;20177;-79
2023/07/01 01:38:46;;;;;;;4.72;1.63;;;17.40;99.90;;;;;;5094154;27;20067;-78
2023/07/01 01:41:30;;;;;;;7.18;1.92;;;17.20;99.90;;;;;;5093676;27;20755;-79
2023/07/01 01:44:05;;;;;;;11.68;2.10;;;17.30;99.90;;;;;;5093409;27;20113;-79
2023/07/01 01:46:33;;;;;;;5.55;1.92;;;17.20;99.90;;;;;;5068245;28;20032;-79
2023/07/01 01:49:03;;;;;;;6.82;2.10;;;17.80;99.90;;;;;;5092775;27;20039;-79
2023/07/01 01:51:31;;;;;;;9.13;2.08;;;17.20;99.90;;;;;;5093503;27;20048;-79
2023/07/01 01:53:58;;;;;;;3.42;2.10;;;17.20;99.90;;;;;;5095568;27;20123;-78
2023/07/01 01:56:26;;;;;;;7.38;2.05;;;17.10;99.90;;;;;;5094401;27;20093;-78
2023/07/01 01:58:54;;;;;;;6.13;2.30;;;17.00;99.90;;;;;;5094562;28;20461;-78
2023/07/01 02:01:19;;;;;;;4.72;2.17;;;17.00;99.90;;;;;;5076557;28;20059;-78
2023/07/01 02:03:45;;;;;;;5.47;2.08;;;17.00;99.90;;;;;;5093969;28;20095;-78
2023/07/01 02:06:11;;;;;;;7.82;2.03;;;17.40;99.90;;;;;;5092360;28;20036;-79
2023/07/01 02:08:37;;;;;;;6.55;2.70;;;16.00;99.90;;;;;;5090496;28;20043;-78
2023/07/01 02:11:03;;;;;;;8.75;2.15;;;16.90;99.90;;;;;;5100843;28;20031;-79
2023/07/01 02:13:29;;;;;;;6.40;2.40;;;17.00;99.90;;;;;;5113082;27;20043;-78
2023/07/01 02:15:54;;;;;;;5.60;2.17;;;16.90;99.90;;;;;;5089995;27;20081;-78
2023/07/01 02:18:20;;;;;;;7.30;2.00;;;16.90;99.90;;;;;;5115495;27;20123;-78
2023/07/01 02:20:45;;;;;;;6.07;1.83;;;17.00;99.90;;;;;;5114075;27;20062;-78
2023/07/01 02:23:11;;;;;;;6.45;2.00;;;17.00;99.90;;;;;;5101920;27;20031;-79
2023/07/01 02:25:37;;;;;;;6.72;2.78;;;17.00;99.90;;;;;;5107172;27;20634;-79
2023/07/01 02:28:03;;;;;;;5.18;2.97;;;17.00;99.90;;;;;;5110673;27;20035;-78
2023/07/01 02:30:28;;;;;;;3.70;1.88;;;17.00;99.90;;;;;;5110099;27;20043;-78
2023/07/01 02:32:54;;;;;;;6.53;2.00;;;16.90;99.90;;;;;;5107548;27;20039;-78
2023/07/01 02:35:20;;;;;;;7.28;2.58;;;17.00;99.90;;;;;;5116169;27;20455;-79
2023/07/01 02:37:45;;;;;;;9.10;2.38;;;17.90;99.90;;;;;;5100278;27;20035;-79
2023/07/01 02:40:11;;;;;;;4.78;2.00;;;16.90;99.90;;;;;;5106328;27;20043;-78
2023/07/01 02:42:37;;;;;;;7.90;2.78;;;16.90;99.90;;;;;;5103413;27;20035;-79
2023/07/01 02:45:04;;;;;;;9.13;3.05;;;16.90;99.90;;;;;;5105451;27;20046;-79
2023/07/01 02:47:30;;;;;;;3.97;1.90;;;17.00;99.90;;;;;;5101026;27;20043;-79
2023/07/01 02:49:56;;;;;;;6.00;2.38;;;17.00;99.90;;;;;;5101384;28;20100;-79
2023/07/01 02:52:22;;;;;;;10.15;3.25;;;17.00;99.90;;;;;;5085597;28;20622;-78
2023/07/01 02:54:48;;;;;;;10.55;3.05;;;17.20;99.90;;;;;;5115929;28;20050;-79
2023/07/01 02:57:14;;;;;;;8.55;3.10;;;17.00;99.90;;;;;;5107815;28;20047;-79
2023/07/01 02:59:39;;;;;;;11.20;3.65;;;17.00;99.90;;;;;;5122294;28;20044;-79
2023/07/01 03:02:06;;;;;;;10.52;3.45;;;17.00;99.90;;;;;;5112984;28;20039;-79
2023/07/01 03:04:35;;;;;;;6.78;2.88;;;17.00;99.90;;;;;;5110922;28;20043;-79
2023/07/01 03:07:01;;;;;;;4.78;2.95;;;16.90;99.90;;;;;;5102333;28;20054;-80
2023/07/01 03:09:27;;;;;;;5.85;3.10;;;16.90;99.90;;;;;;5093649;28;20047;-80
2023/07/01 03:11:53;;;;;;;5.30;3.28;;;16.80;99.90;;;;;;5106943;28;20044;-79
2023/07/01 03:14:19;;;;;;;5.25;3.05;;;16.90;99.90;;;;;;5116441;27;20085;-80
2023/07/01 03:16:46;;;;;;;8.80;3.45;;;16.80;99.90;;;;;;5072361;28;20047;-80
2023/07/01 03:19:12;;;;;;;6.07;3.40;;;16.90;99.90;;;;;;5106614;28;20046;-79
2023/07/01 03:21:38;;;;;;;13.65;3.75;;;16.80;99.90;;;;;;5116218;28;20040;-80
2023/07/01 03:24:04;;;;;;;4.63;3.60;;;16.80;99.90;;;;;;5107891;28;20047;-79
2023/07/01 03:26:29;;;;;;;3.55;3.25;;;16.70;99.90;;;;;;5110164;28;20050;-79
2023/07/01 03:28:55;;;;;;;14.10;4.15;;;16.70;99.90;;;;;;5090539;28;20068;-81
2023/07/01 03:31:21;;;;;;;8.52;3.92;;;17.30;99.90;;;;;;5109812;28;20393;-81
2023/07/01 03:33:47;;;;;;;8.88;3.88;;;16.60;99.90;;;;;;5100950;28;20033;-80
2023/07/01 03:36:13;;;;;;;7.28;3.83;;;16.60;99.90;;;;;;5079768;28;20054;-81
2023/07/01 03:38:38;;;;;;;8.43;3.60;;;16.60;99.90;;;;;;5093085;28;20040;-80
2023/07/01 03:41:06;;;;;;;13.27;4.32;;;17.40;99.90;;;;;;5094009;28;20140;-81
2023/07/01 03:43:32;;;;;;;4.85;3.92;;;16.50;99.90;;;;;;5101958;28;20050;-80
2023/07/01 03:45:58;;;;;;;5.22;3.70;;;16.50;99.90;;;;;;5091947;28;20127;-80
2023/07/01 03:48:24;;;;;;;8.90;3.85;;;16.50;99.90;;;;;;5091118;28;20467;-80
2023/07/01 03:50:50;;;;;;;7.47;4.00;;;16.50;99.90;;;;;;5071800;28;20547;-80
2023/07/01 03:53:16;;;;;;;7.75;3.45;;;16.40;99.90;;;;;;5055746;28;20071;-80
2023/07/01 03:55:41;;;;;;;7.00;3.47;;;16.40;99.90;;;;;;5073556;28;20078;-80
2023/07/01 03:58:07;;;;;;;5.57;3.13;;;16.40;99.90;;;;;;5093646;28;20064;-80
2023/07/01 04:00:33;;;;;;;8.15;3.60;;;16.30;99.90;;;;;;5098252;27;20495;-80
2023/07/01 04:03:05;;;;;;;4.00;3.35;;;16.40;99.90;;;;;;5098213;28;20059;-80
2023/07/01 04:05:35;;;;;;;7.93;3.90;;;16.40;99.90;;;;;;5098132;28;20039;-80
2023/07/01 04:08:01;;;;;;;6.63;3.65;;;16.40;99.90;;;;;;5097335;28;20032;-79
2023/07/01 04:10:28;;;;;;;6.03;2.92;;;16.40;99.90;;;;;;5095454;28;20035;-78
2023/07/01 04:12:53;;;;;;;8.93;3.63;;;16.50;99.90;;;;;;5081308;28;20088;-79
2023/07/01 04:15:19;;;;;;;4.88;3.15;;;17.10;99.90;;;;;;5095096;28;20039;-80
2023/07/01 04:17:48;;;;;;;5.78;3.47;;;16.50;99.90;;;;;;5094768;28;20035;-81
2023/07/01 04:20:14;;;;;;;7.30;3.28;;;17.20;99.90;;;;;;5079223;28;20631;-81
2023/07/01 04:22:40;;;;;;;8.93;4.20;;;16.50;99.90;;;;;;5093979;28;20093;-79
2023/07/01 04:25:07;;;;;;;4.38;3.13;;;16.50;99.90;;;;;;5095484;28;20036;-79
2023/07/01 04:27:34;;;;;;;6.53;2.97;;;15.80;99.90;;;;;;5097454;28;20047;-80
2023/07/01 04:30:00;;;;;;;6.85;2.67;;;16.50;99.90;;;;;;5081483;28;20123;-80
2023/07/01 04:32:26;;;;;;;6.00;3.25;;;16.50;99.90;;;;;;5106989;27;20162;-80
2023/07/01 04:34:53;;;;;;;5.25;3.17;;;16.60;99.90;;;;;;5102362;27;20126;-80
2023/07/01 04:37:19;;;;;;;5.45;2.88;;;16.70;99.90;;;;;;5100522;28;20039;-79
2023/07/01 04:39:44;;;;;;;7.03;3.20;;;16.60;99.90;;;;;;5093111;28;20060;-79
2023/07/01 04:42:10;;;;;;;4.55;2.80;;;16.60;99.90;;;;;;5107917;27;20040;-79
2023/07/01 04:44:36;;;;;;;9.52;3.50;;;16.60;99.90;;;;;;5096587;27;20083;-80
2023/07/01 04:47:01;;;;;;;10.20;3.50;;;16.60;99.90;;;;;;5092073;28;20460;-81
2023/07/01 04:49:27;;;;;;;6.25;3.30;;;16.60;99.90;;;;;;5100476;27;20040;-80
2023/07/01 04:51:52;;;;;;;6.90;3.92;;;16.60;99.90;;;;;;5124161;27;20444;-81
2023/07/01 04:54:18;;;;;;;6.43;4.32;;;16.70;99.90;;;;;;5111455;27;20559;-80
2023/07/01 04:56:44;;;;;;;7.43;4.22;;;16.70;99.90;;;;;;5097237;28;20129;-80
2023/07/01 04:59:09;;;;;;;8.25;3.95;;;16.60;99.90;;;;;;5111113;27;20123;-80
2023/07/01 05:01:35;;;;;;;7.82;4.72;;;16.70;99.90;;;;;;5111269;27;20062;-80
2023/07/01 05:04:01;;;;;;;5.15;3.38;;;16.60;99.90;;;;;;5115218;27;20930;-80
2023/07/01 05:06:27;;;;;;;3.70;3.22;;;16.60;99.90;;;;;;5104668;27;20038;-79
2023/07/01 05:08:53;;;;;;;5.70;3.80;;;16.70;99.90;;;;;;5115880;27;20047;-80
2023/07/01 05:11:19;;;;;;;13.98;5.20;;;16.70;99.90;;;;;;5121314;27;20039;-80
2023/07/01 05:13:45;;;;;;;9.35;4.03;;;16.70;99.90;;;;;;5077219;28;20070;-81
2023/07/01 05:16:11;;;;;;;6.43;3.90;;;17.70;99.90;;;;;;5121213;27;20112;-80
2023/07/01 05:18:36;;;;;;;6.22;4.22;;;16.70;99.90;;;;;;5087007;28;20032;-80
2023/07/01 05:21:02;;;;;;;6.65;3.70;;;17.00;99.90;;;;;;5092309;27;20137;-79
2023/07/01 05:23:27;;;;;;;10.27;4.10;;;16.70;99.90;;;;;;5106522;27;20035;-80
2023/07/01 05:25:53;;;;;;;6.63;3.90;;;16.70;99.90;;;;;;5123213;27;20039;-80
2023/07/01 05:28:19;;;;;;;5.60;3.53;;;16.60;99.90;;;;;;5112220;27;20456;-79
2023/07/01 05:30:46;;;;;;;7.93;3.90;;;16.70;99.90;;;;;;5107052;27;20490;-80
2023/07/01 05:33:12;;;;;;;10.32;4.07;;;16.70;99.90;;;;;;5097705;28;20479;-80
2023/07/01 05:35:37;;;;;;;7.65;3.63;;;16.70;99.90;;;;;;5110647;27;20056;-80
2023/07/01 05:38:10;;;;;;;8.02;4.60;;;16.70;99.90;;;;;;5102653;27;20050;-80
2023/07/01 05:40:36;;;;;;;8.43;4.03;;;16.70;99.90;;;;;;5102182;27;20031;-80
2023/07/01 05:43:03;;;;;;;5.55;4.63;;;16.70;99.90;;;;;;5091822;28;20130;-79
2023/07/01 05:45:29;;;;;;;5.35;3.88;;;16.70;99.90;;;;;;5107284;27;20052;-80
2023/07/01 05:47:55;;;;;;;7.97;4.32;;;16.70;99.90;;;;;;5095959;28;20758;-80
2023/07/01 05:50:21;;;;;;;9.85;4.15;;;16.70;99.90;;;;;;5074633;28;20120;-80
2023/07/01 05:52:47;;;;;;;8.80;4.75;;;17.00;99.90;;;;;;5075594;28;20038;-80
2023/07/01 05:55:12;;;;;;;11.50;4.95;;;16.70;99.90;;;;;;5101526;27;20050;-80
2023/07/01 05:57:42;;;;;;;10.65;5.90;;;16.80;99.90;;;;;;5095237;28;20054;-80
2023/07/01 06:00:13;;;;;;;8.60;5.60;;;16.70;99.90;;;;;;5082136;28;20054;-80
2023/07/01 06:02:40;;;;;;;7.70;5.20;;;16.70;99.90;;;;;;5109697;27;20506;-79
2023/07/01 06:05:07;;;;;;;8.65;5.15;;;16.70;99.90;;;;;;5081558;28;20070;-80
2023/07/01 06:07:32;;;;;;;7.82;4.60;;;16.70;99.90;;;;;;5105808;27;20043;-80
2023/07/01 06:09:58;;;;;;;9.07;5.35;;;16.70;99.90;;;;;;5100607;27;20036;-80
2023/07/01 06:12:27;;;;;;;12.18;6.20;;;16.70;99.90;;;;;;5123064;27;20075;-79
2023/07/01 06:14:52;;;;;;;8.60;5.82;;;16.70;99.90;;;;;;5121154;27;20036;-79
2023/07/01 06:17:18;;;;;;;11.52;6.13;;;16.70;99.90;;;;;;5119110;27;20047;-79
2023/07/01 06:19:44;;;;;;;9.98;6.32;;;16.80;99.90;;;;;;5114329;28;20040;-79
2023/07/01 06:22:09;;;;;;;10.43;6.32;;;16.70;99.90;;;;;;5113253;28;20082;-76
2023/07/01 06:24:35;;;;;;;13.32;5.95;;;17.00;99.90;;;;;;5114692;27;20123;-78
2023/07/01 06:27:00;;;;;;;12.15;6.07;;;16.50;99.90;;;;;;5105323;27;20032;-78
2023/07/01 06:29:27;;;;;;;7.28;6.38;;;16.50;99.90;;;;;;5096673;27;20398;-76
2023/07/01 06:31:52;;;;;;;8.80;6.03;;;16.40;99.90;;;;;;5076653;28;20027;-78
2023/07/01 06:34:18;;;;;;;10.38;6.10;;;16.40;99.90;;;;;;5091860;28;20051;-81
2023/07/01 06:36:44;;;;;;;9.40;5.88;;;16.50;99.90;;;;;;5097001;28;20303;-79
2023/07/01 06:39:11;;;;;;;6.70;5.47;;;16.50;99.90;;;;;;5079875;28;20028;-81
2023/07/01 06:41:39;;;;;;;8.50;6.68;;;16.50;99.90;;;;;;5072383;28;20373;-82
2023/07/01 06:44:04;;;;;;;8.32;5.53;;;16.50;99.90;;;;;;5090428;28;20048;-82
2023/07/01 06:46:30;;;;;;;6.10;5.50;;;16.50;99.90;;;;;;5098414;28;20061;-83
2023/07/01 06:48:56;;;;;;;6.97;5.22;;;16.50;99.90;;;;;;5076648;28;20060;-82
2023/07/01 06:51:22;;;;;;;5.50;4.10;;;16.40;99.90;;;;;;5063030;28;20031;-82
2023/07/01 06:53:47;;;;;;;7.22;5.57;;;17.10;99.90;;;;;;5076427;28;20082;-81
2023/07/01 06:56:13;;;;;;;5.65;5.15;;;16.50;99.90;;;;;;5099745;28;20047;-79
2023/07/01 06:58:41;;;;;;;7.20;5.60;;;16.40;99.90;;;;;;5076429;28;20054;-81
2023/07/01 07:01:07;;;;;;;5.28;4.70;;;16.40;99.90;;;;;;5091459;28;20044;-80
2023/07/01 07:03:39;;;;;;;4.82;4.43;;;16.40;99.90;;;;;;5056022;28;20489;-81
2023/07/01 07:06:05;;;;;;;4.75;4.35;;;16.80;99.90;;;;;;5096059;28;20047;-78
2023/07/01 07:08:31;;;;;;;4.57;4.18;;;16.50;99.90;;;;;;5093489;28;20042;-80
2023/07/01 07:10:57;;;;;;;4.68;4.00;;;16.50;99.90;;;;;;5097814;28;20035;-78
2023/07/01 07:13:23;;;;;;;5.03;4.63;;;16.50;99.90;;;;;;5103869;28;20114;-79
2023/07/01 07:15:48;;;;;;;6.78;4.70;;;16.60;99.90;;;;;;5107537;28;20155;-79
2023/07/01 07:18:14;;;;;;;6.30;5.10;;;16.60;99.90;;;;;;5106022;28;20067;-80
2023/07/01 07:20:40;;;;;;;7.00;5.45;;;16.50;99.90;;;;;;5099198;28;20048;-78
2023/07/01 07:23:06;;;;;;;5.47;5.07;;;16.50;99.90;;;;;;5115623;28;20035;-79
2023/07/01 07:25:35;;;;;;;5.10;4.65;;;17.80;99.90;;;;;;5116001;28;20058;-80
2023/07/01 07:28:03;;;;;;;5.82;5.10;;;16.60;99.90;;;;;;5082646;28;20044;-80
2023/07/01 07:30:29;;;;;;;4.80;4.45;;;16.60;99.90;;;;;;5113700;28;20043;-84
2023/07/01 07:32:55;;;;;;;5.03;4.63;;;16.60;99.90;;;;;;5100861;28;20491;-79
2023/07/01 07:35:22;;;;;;;4.25;3.85;;;16.60;99.90;;;;;;5083809;27;20036;-76
2023/07/01 07:37:48;;;;;;;4.18;3.72;;;17.60;99.90;;;;;;5091403;27;20035;-79
2023/07/01 07:40:14;;;;;;;3.75;3.53;;;16.70;99.90;;;;;;5107195;27;20050;-76
2023/07/01 07:42:43;;;;;;;4.45;4.03;;;16.70;99.90;;;;;;5104927;27;20043;-77
2023/07/01 07:45:09;;;;;;;4.38;4.05;;;16.70;99.90;;;;;;5087561;28;20052;-79
2023/07/01 07:47:34;;;;;;;11.05;9.18;;;16.70;99.90;;;;;;5128426;27;20498;-78
2023/07/01 07:50:01;;;;;;;5.07;4.72;;;16.70;99.90;;;;;;5124397;27;20039;-78
2023/07/01 07:52:27;;;;;;;4.90;4.50;;;16.70;99.90;;;;;;5090569;27;20098;-77
2023/07/01 07:54:53;;;;;;;5.10;4.70;;;16.80;99.90;;;;;;5124495;27;20504;-78
2023/07/01 07:57:18;;;;;;;4.32;4.00;;;17.00;99.90;;;;;;5108347;27;20074;-76
2023/07/01 07:59:44;;;;;;;4.30;4.00;;;16.90;99.90;;;;;;5116041;27;20062;-79
2023/07/01 08:02:10;;;;;;;4.40;4.00;;;16.50;99.90;;;;;;5109621;27;20102;-78
2023/07/01 08:04:36;;;;;;;6.05;4.50;;;16.90;99.90;;;;;;5119091;27;20093;-77
2023/07/01 08:07:02;;;;;;;5.60;4.50;;;16.90;99.90;;;;;;5118299;27;20048;-77
2023/07/01 08:09:29;;;;;;;4.60;4.28;;;16.90;99.90;;;;;;5111099;27;20122;-78
2023/07/01 08:11:58;;;;;;;4.65;4.35;;;16.80;99.90;;;;;;5109318;27;20044;-77
2023/07/01 08:14:28;;;;;;;3.97;3.78;;;16.90;99.90;;;;;;5111758;27;20129;-77
2023/07/01 08:16:54;;;;;;;5.20;4.75;;;16.90;99.90;;;;;;5114400;27;20079;-76
2023/07/01 08:19:20;;;;;;;4.30;4.00;;;17.20;99.90;;;;;;5121195;27;20044;-75
2023/07/01 08:21:46;;;;;;;4.55;4.25;;;17.00;99.90;;;;;;5124760;27;20118;-76
2023/07/01 08:24:11;;;;;;;4.20;3.83;;;17.00;99.90;;;;;;5076641;28;20119;-76
2023/07/01 08:26:37;;;;;;;4.88;4.57;;;16.90;99.90;;;;;;5107651;27;21008;-76
2023/07/01 08:29:07;;;;;;;3.38;3.17;;;17.00;99.90;;;;;;5079947;28;20417;-75
2023/07/01 08:31:33;;;;;;;4.13;3.83;;;17.10;99.90;;;;;;5109334;27;20032;-78
2023/07/01 08:33:59;;;;;;;3.60;3.40;;;17.00;99.90;;;;;;5124636;27;20054;-77
2023/07/01 08:36:27;;;;;;;3.45;3.25;;;17.10;99.90;;;;;;5115871;27;20044;-77
2023/07/01 08:38:52;;;;;;;3.70;3.50;;;17.10;99.90;;;;;;5123135;27;20066;-77
2023/07/01 08:41:21;;;;;;;3.22;3.10;;;16.30;99.90;;;;;;5090244;27;20031;-79
2023/07/01 08:43:47;;;;;;;3.75;3.55;;;17.90;99.90;;;;;;5113787;27;20375;-77
2023/07/01 08:46:15;;;;;;;3.78;3.47;;;17.20;99.90;;;;;;5100238;27;20044;-75
2023/07/01 08:48:44;;;;;;;4.80;3.65;;;17.30;99.90;;;;;;5092542;27;20043;-78
2023/07/01 08:51:37;;;;;;;3.80;3.60;;;17.30;99.90;;;;;;5102147;27;20521;-80
2023/07/01 08:54:05;;;;;;;3.28;2.97;;;17.30;99.90;;;;;;5083297;28;20079;-82
2023/07/01 08:56:31;;;;;;;3.35;3.15;;;17.30;99.90;;;;;;5096148;27;20043;-83
2023/07/01 08:58:57;;;;;;;6.30;5.80;;;17.40;99.90;;;;;;5121177;27;20035;-83
2023/07/01 09:01:22;;;;;;;5.55;5.15;;;17.40;99.90;;;;;;5119067;27;20048;-82
2023/07/01 09:03:49;;;;;;;5.53;3.13;;;17.40;99.90;;;;;;5128927;27;20031;-82
2023/07/01 09:06:15;;;;;;;3.95;3.65;;;17.40;99.90;;;;;;5102251;27;20055;-82
2023/07/01 09:08:41;;;;;;;4.55;4.03;;;17.40;99.90;;;;;;5108927;27;20039;-82
2023/07/01 09:11:10;;;;;;;3.83;3.55;;;17.40;99.90;;;;;;5102718;27;20098;-79
2023/07/01 09:13:36;;;;;;;3.95;3.67;;;17.40;99.90;;;;;;5100401;27;20043;-80
2023/07/01 09:16:02;;;;;;;3.92;3.63;;;17.40;99.90;;;;;;5091283;28;20055;-81
2023/07/01 09:18:29;;;;;;;3.92;3.63;;;17.40;99.90;;;;;;5111236;27;20397;-80
2023/07/01 09:20:55;;;;;;;4.18;3.80;;;17.40;99.90;;;;;;5119660;27;20035;-80
2023/07/01 09:23:35;;;;;;;3.83;3.63;;;17.40;99.90;;;;;;5101833;27;20035;-81
2023/07/01 09:26:13;;;;;;;4.00;3.80;;;17.40;99.90;;;;;;5117143;27;20035;-82
2023/07/01 09:28:39;;;;;;;3.42;3.15;;;17.40;99.90;;;;;;5106036;27;20056;-81
2023/07/01 09:31:09;;;;;;;3.28;3.03;;;17.40;99.90;;;;;;5101859;27;20035;-79
2023/07/01 09:33:36;;;;;;;3.70;3.50;;;17.50;99.90;;;;;;5117439;27;20082;-81
2023/07/01 09:36:04;;;;;;;3.85;3.50;;;17.50;99.90;;;;;;5120321;27;20447;-80
2023/07/01 09:38:35;;;;;;;3.78;3.55;;;17.40;99.90;;;;;;5114569;27;20040;-80
2023/07/01 09:41:37;;;;;;;4.30;3.88;;;17.50;99.90;;;;;;5140309;27;20039;-80
2023/07/01 09:44:19;;;;;;;3.70;3.40;;;17.50;99.90;;;;;;5049982;28;20037;-80
2023/07/01 09:46:50;;;;;;;3.60;3.40;;;17.50;99.90;;;;;;5106732;27;20108;-81
2023/07/01 09:49:16;;;;;;;4.00;3.80;;;17.50;99.90;;;;;;5102857;27;20036;-81
2023/07/01 09:51:45;;;;;;;4.00;3.80;;;17.50;99.90;;;;;;5097229;27;20046;-80
2023/07/01 09:54:32;;;;;;;3.53;3.03;;;17.50;99.90;;;;;;5097692;27;20047;-80
2023/07/01 09:56:59;;;;;;;4.55;2.60;;;17.50;99.90;;;;;;5096944;28;20055;-81
2023/07/01 09:59:26;;;;;;;2.13;2.03;;;17.50;99.90;;;;;;5102319;27;20053;-81
2023/07/01 10:01:54;;;;;;;3.15;1.40;;;17.60;99.90;;;;;;5109151;27;20051;-80
2023/07/01 10:04:25;;;;;;;1.33;1.17;;;17.60;99.90;;;;;;5085500;27;20109;-80
2023/07/01 10:06:51;;;;;;;3.70;1.33;;;17.60;99.90;;;;;;5110578;27;20479;-80
2023/07/01 10:09:16;;;;;;;2.33;0.80;;;17.70;99.90;;;;;;5115037;27;20043;-78
2023/07/01 10:11:42;;;;;;;0.35;0.20;;;17.70;99.90;;;;;;5114507;27;20048;-80
2023/07/01 10:14:10;;;;;;;0.50;0.50;;;17.70;99.90;;;;;;5101718;27;20040;-79
2023/07/01 10:16:47;;;;;;;1.08;0.55;;;17.70;99.90;;;;;;5093651;28;20044;-80
2023/07/01 10:19:27;;;;;;;0.50;0.50;;;17.70;99.90;;;;;;5065097;28;20040;-77
2023/07/01 10:22:13;;;;;;;0.55;0.40;;;17.80;99.90;;;;;;5096714;28;20570;-79
2023/07/01 10:24:39;;;;;;;0.85;0.60;;;18.10;99.90;;;;;;5105832;28;20502;-78
2023/07/01 10:27:05;;;;;;;0.90;0.80;;;17.80;99.90;;;;;;5101354;27;20040;-74
2023/07/01 10:29:32;;;;;;;0.80;0.80;;;17.80;99.90;;;;;;5077544;28;20036;-76
2023/07/01 10:32:13;;;;;;;4.25;3.63;;;17.90;99.90;;;;;;5095875;28;20075;-82
2023/07/01 10:34:55;;;;;;;2.55;1.80;;;17.90;99.90;;;;;;5104156;27;20043;-79
2023/07/01 10:37:22;;;;;;;2.05;1.95;;;17.90;99.90;;;;;;5111332;28;20051;-83
2023/07/01 10:39:48;;;;;;;2.60;1.80;;;17.90;99.90;;;;;;5109122;27;20410;-81
2023/07/01 10:42:34;;;;;;;2.45;1.80;;;17.90;99.90;;;;;;5109868;27;20501;-81
2023/07/01 10:45:11;;;;;;;2.95;2.60;;;17.90;99.90;;;;;;5091866;28;20035;-83
2023/07/01 10:47:44;;;;;;;4.68;3.08;;;17.90;99.90;;;;;;5099815;28;20051;-82
2023/07/01 10:50:12;;;;;;;5.72;3.70;;;17.90;99.90;;;;;;5111481;28;20524;-82
2023/07/01 10:52:56;;;;;;;4.85;3.92;;;17.90;99.90;;;;;;5107168;27;20044;-81
2023/07/01 10:55:43;;;;;;;;;;;17.90;99.90;;;;;;5099661;28;20509;-82
2023/07/01 10:58:28;;;;;;;3.67;3.45;;;17.90;99.90;;;;;;5110541;27;19919;-82
2023/07/01 11:00:58;;;;;;;4.25;3.95;;;17.90;99.90;;;;;;5117307;28;20050;-82
2023/07/01 11:03:33;;;;;;;6.72;5.03;;;17.90;99.90;;;;;;5092638;28;20095;-84
2023/07/01 11:06:10;;;;;;;4.70;3.97;;;17.90;99.90;;;;;;5109961;28;20059;-86
2023/07/01 11:08:47;;;;;;;2.25;2.05;;;17.90;99.90;;;;;;5100273;27;20475;-82
2023/07/01 11:11:24;;;;;;;2.63;2.22;;;17.90;99.90;;;;;;5124292;27;20047;-86
2023/07/01 11:13:54;;;;;;;2.42;2.22;;;17.90;99.90;;;;;;5116367;27;20039;-83
2023/07/01 11:16:20;;;;;;;1.83;1.73;;;17.80;99.90;;;;;;5116977;27;20039;-85
2023/07/01 11:18:53;;;;;;;2.58;2.38;;;17.90;99.90;;;;;;5132094;27;20047;-83
2023/07/01 11:21:22;;;;;;;2.75;2.03;;;17.80;99.90;;;;;;5132108;27;20086;-80
2023/07/01 11:23:59;;;;;;;2.97;2.28;;;17.90;99.90;;;;;;5086407;27;20071;-85
2023/07/01 11:26:29;;;;;;;3.63;2.10;;;17.90;99.90;;;;;;5125441;27;20074;-85
2023/07/01 11:28:54;;;;;;;2.85;2.65;;;17.90;99.90;;;;;;5103074;27;20044;-85
2023/07/01 11:31:22;;;;;;;3.65;3.10;;;18.00;99.90;;;;;;5103012;28;20574;-82
2023/07/01 11:33:49;;;;;;;4.38;3.30;;;18.00;99.90;;;;;;5097790;27;20038;-81
2023/07/01 11:36:17;;;;;;;6.97;4.32;;;18.10;99.90;;;;;;5121093;27;20039;-82
2023/07/01 11:38:48;;;;;;;5.28;4.80;;;18.20;99.90;;;;;;5123321;27;20071;-86
2023/07/01 11:41:16;;;;;;;7.65;4.88;;;18.30;99.90;;;;;;5107109;27;20543;-84
2023/07/01 11:43:42;;;;;;;5.20;4.80;;;18.40;99.90;;;;;;5103760;27;20118;-80
2023/07/01 11:46:09;;;;;;;4.88;4.45;;;18.40;99.90;;;;;;5121882;27;20550;-82
2023/07/01 11:48:34;;;;;;;6.00;4.97;;;18.40;99.90;;;;;;5103161;28;20052;-85
2023/07/01 11:51:01;;;;;;;6.18;5.25;;;18.40;99.90;;;;;;5120955;27;20412;-82
2023/07/01 11:53:28;;;;;;;5.43;4.93;;;18.40;99.90;;;;;;5119202;27;20031;-82
2023/07/01 11:55:56;;;;;;;6.72;6.05;;;18.30;99.90;;;;;;5103569;27;20471;-84
2023/07/01 11:58:31;;;;;;;7.07;5.30;;;18.40;99.90;;;;;;5120490;27;20050;-82
2023/07/01 12:00:58;;;;;;;10.10;6.00;;;18.20;99.90;;;;;;5105848;27;20051;-85
2023/07/01 12:03:24;;;;;;;8.45;6.70;;;18.20;99.90;;;;;;5076705;28;20078;-87
2023/07/01 12:05:51;;;;;;;13.38;7.25;;;18.20;99.90;;;;;;5119003;27;20031;-79
2023/07/01 12:08:17;;;;;;;10.60;8.02;;;18.20;99.90;;;;;;5120275;27;20036;-80
2023/07/01 12:10:42;;;;;;;9.38;8.50;;;18.40;99.90;;;;;;5125564;27;20501;-80
2023/07/01 12:13:29;;;;;;;9.55;7.32;;;18.50;99.90;;;;;;5106218;27;20046;-82
2023/07/01 12:15:57;;;;;;;8.32;7.20;;;18.70;99.90;;;;;;5124354;27;20101;-81
2023/07/01 12:18:27;;;;;;;7.25;6.53;;;18.80;99.90;;;;;;5062101;28;20488;-82
2023/07/01 12:20:56;;;;;;;8.13;6.88;;;18.90;99.90;;;;;;5044426;28;20515;-81
2023/07/01 12:23:22;;;;;;;10.93;6.22;;;19.10;99.90;;;;;;5042534;28;20094;-81
2023/07/01 12:25:48;;;;;;;8.68;5.53;;;18.80;99.90;;;;;;5066675;28;20480;-82
2023/07/01 12:28:13;;;;;;;7.50;5.60;;;18.80;99.90;;;;;;5069644;28;20047;-81
2023/07/01 12:30:40;;;;;;;6.60;5.60;;;18.80;99.90;;;;;;5060511;28;20094;-82
2023/07/01 12:33:05;;;;;;;5.53;5.10;;;19.10;99.90;;;;;;5018128;28;20032;-80
2023/07/01 12:35:31;;;;;;;9.73;6.05;;;18.80;99.90;;;;;;5061784;28;20304;-81
2023/07/01 12:37:58;;;;;;;8.18;4.63;;;19.10;99.90;;;;;;5044680;28;20051;-80
2023/07/01 12:40:30;;;;;;;6.03;3.55;;;19.30;99.90;;;;;;5061151;28;20082;-81
2023/07/01 12:42:56;;;;;;;4.75;4.25;;;18.90;99.90;;;;;;5053933;28;20056;-79
2023/07/01 12:45:21;;;;;;;5.32;3.75;;;19.00;99.90;;;;;;5063582;28;20036;-80
2023/07/01 12:47:47;;;;;;;7.20;3.30;;;19.10;99.90;;;;;;5047300;28;20052;-81
2023/07/01 12:50:16;;;;;;;4.28;3.00;;;19.10;99.90;;;;;;5053890;28;20040;-81